Time;durP1;ratioP1;P1;durP2;ratioP2;P2;SDS_P1;SDS_P2;PMS_P1;PMS_P2;Temp;Humidity;BMP_temperature;BMP_pressure;BME280_temperature;BME280_humidity;BME280_pressure;Samples;Min_cycle;Max_cycle;Signal;HPM_P1;HPM_P2
2023/06/09 00:02:22;;;;;;;14.33;12.83;;;21.40;99.90;;;;;;5115816;28;20251;-79
2023/06/09 00:04:48;;;;;;;15.17;13.67;;;21.40;99.90;;;;;;5114378;28;20290;-77
2023/06/09 00:07:15;;;;;;;12.97;11.67;;;21.30;99.90;;;;;;5115790;28;20871;-78
2023/06/09 00:09:45;;;;;;;14.50;13.00;;;21.30;99.90;;;;;;5115968;28;20431;-79
2023/06/09 00:12:12;;;;;;;19.80;13.47;;;21.30;99.90;;;;;;5114356;28;20408;-79
2023/06/09 00:14:37;;;;;;;19.43;14.70;;;21.30;99.90;;;;;;5114260;28;20432;-78
2023/06/09 00:17:07;;;;;;;16.80;13.17;;;21.40;99.90;;;;;;5115400;28;20920;-78
2023/06/09 00:19:35;;;;;;;14.80;12.97;;;21.40;99.90;;;;;;5115593;28;20188;-78
2023/06/09 00:22:01;;;;;;;15.00;13.13;;;21.40;99.90;;;;;;5114063;28;20509;-79
2023/06/09 00:24:26;;;;;;;15.47;12.30;;;21.40;99.90;;;;;;5113855;28;20984;-78
2023/06/09 00:26:52;;;;;;;19.63;13.47;;;21.40;99.90;;;;;;5115225;28;20459;-78
2023/06/09 00:29:22;;;;;;;13.00;11.70;;;21.40;99.90;;;;;;5114000;28;20707;-77
2023/06/09 00:31:48;;;;;;;14.40;12.50;;;21.30;99.90;;;;;;5115062;28;20476;-77
2023/06/09 00:34:13;;;;;;;16.20;13.50;;;21.30;99.90;;;;;;5115386;28;20436;-79
2023/06/09 00:36:40;;;;;;;16.10;14.40;;;21.30;99.90;;;;;;5113725;28;20428;-78
2023/06/09 00:39:05;;;;;;;15.10;13.50;;;21.30;99.90;;;;;;5113717;28;20221;-78
2023/06/09 00:41:36;;;;;;;14.23;12.83;;;21.30;99.90;;;;;;5114956;28;20420;-78
2023/06/09 00:44:02;;;;;;;14.20;12.80;;;21.30;99.90;;;;;;5115036;28;20183;-78
2023/06/09 00:46:28;;;;;;;15.33;12.40;;;21.30;99.90;;;;;;5114772;28;21014;-78
2023/06/09 00:48:54;;;;;;;17.03;12.53;;;21.20;99.90;;;;;;5114768;28;20412;-78
2023/06/09 00:51:20;;;;;;;15.80;12.47;;;21.20;99.90;;;;;;5114787;28;20187;-78
2023/06/09 00:53:45;;;;;;;13.17;11.70;;;21.20;99.90;;;;;;5114858;28;20625;-78
2023/06/09 00:56:12;;;;;;;14.13;12.37;;;21.20;99.90;;;;;;5113389;28;20242;-79
2023/06/09 00:58:37;;;;;;;13.47;11.40;;;21.20;99.90;;;;;;5113436;28;20184;-78
2023/06/09 01:01:04;;;;;;;14.33;12.73;;;21.20;99.90;;;;;;5114640;28;20443;-78
2023/06/09 01:03:32;;;;;;;13.17;11.80;;;21.20;99.90;;;;;;5114950;28;20293;-78
2023/06/09 01:06:26;;;;;;;12.63;11.43;;;21.20;99.90;;;;;;5113121;28;20475;-78
2023/06/09 01:08:59;;;;;;;13.73;12.13;;;21.10;99.90;;;;;;5114621;28;20549;-79
2023/06/09 01:12:11;;;;;;;14.67;11.23;;;21.10;99.90;;;;;;5112983;28;20480;-78
2023/06/09 01:14:44;;;;;;;16.50;12.20;;;21.10;99.90;;;;;;5110901;28;20439;-78
2023/06/09 01:17:18;;;;;;;12.13;10.57;;;21.00;99.90;;;;;;5113170;28;20408;-78
2023/06/09 01:19:50;;;;;;;13.87;11.30;;;21.10;99.90;;;;;;5113562;28;20904;-78
2023/06/09 01:22:44;;;;;;;14.90;10.50;;;21.00;99.90;;;;;;5114453;28;20419;-79
2023/06/09 01:25:39;;;;;;;18.80;11.00;;;21.00;99.90;;;;;;5116621;27;20944;-79
2023/06/09 01:28:06;;;;;;;13.13;10.00;;;21.00;99.90;;;;;;5114205;28;20412;-79
2023/06/09 01:30:33;;;;;;;12.67;11.37;;;21.00;99.90;;;;;;5113048;28;20451;-79
2023/06/09 01:33:03;;;;;;;12.57;11.23;;;21.00;99.90;;;;;;5114485;28;20456;-78
2023/06/09 01:35:29;;;;;;;15.17;11.47;;;21.00;99.90;;;;;;5113075;28;20432;-78
2023/06/09 01:37:55;;;;;;;16.17;10.13;;;21.00;99.90;;;;;;5114132;28;20507;-79
2023/06/09 01:40:21;;;;;;;13.53;11.00;;;21.00;99.90;;;;;;5114629;28;20648;-77
2023/06/09 01:42:47;;;;;;;13.50;11.20;;;21.00;99.90;;;;;;5112901;28;20432;-78
2023/06/09 01:45:13;;;;;;;14.43;11.60;;;21.00;99.90;;;;;;5114475;28;20223;-79
2023/06/09 01:47:39;;;;;;;12.50;10.50;;;21.00;99.90;;;;;;5114162;28;20651;-80
2023/06/09 01:50:12;;;;;;;11.53;9.90;;;21.00;99.90;;;;;;5114290;28;20556;-80
2023/06/09 01:52:42;;;;;;;17.20;10.60;;;20.90;99.90;;;;;;5112790;28;20408;-78
2023/06/09 01:55:29;;;;;;;11.87;10.70;;;20.90;99.90;;;;;;5114309;28;20428;-78
2023/06/09 01:58:07;;;;;;;11.80;10.27;;;20.90;99.90;;;;;;5114003;28;20384;-78
2023/06/09 02:00:33;;;;;;;11.33;9.50;;;20.90;99.90;;;;;;5114588;28;20802;-78
2023/06/09 02:03:04;;;;;;;10.93;9.50;;;20.80;99.90;;;;;;5113904;28;20831;-79
2023/06/09 02:05:31;;;;;;;10.40;9.40;;;20.80;99.90;;;;;;5114399;28;20500;-78
2023/06/09 02:07:58;;;;;;;10.37;9.27;;;20.80;99.90;;;;;;5113827;28;20491;-79
2023/06/09 02:10:24;;;;;;;11.03;9.67;;;20.80;99.90;;;;;;5112805;28;20843;-79
2023/06/09 02:12:50;;;;;;;10.27;8.83;;;20.80;99.90;;;;;;5113892;28;20439;-78
2023/06/09 02:15:16;;;;;;;9.77;8.87;;;20.80;99.90;;;;;;5112601;28;20488;-78
2023/06/09 02:17:42;;;;;;;11.57;8.33;;;20.80;99.90;;;;;;5112591;28;20179;-78
2023/06/09 02:20:09;;;;;;;10.40;9.10;;;20.70;99.90;;;;;;5112579;28;20253;-78
2023/06/09 02:22:35;;;;;;;11.93;8.40;;;20.70;99.90;;;;;;5112485;28;20920;-78
2023/06/09 02:25:03;;;;;;;13.40;9.13;;;20.60;99.90;;;;;;5116369;28;20530;-77
2023/06/09 02:27:29;;;;;;;16.13;10.00;;;20.40;99.90;;;;;;5116353;28;20493;-79
2023/06/09 02:29:54;;;;;;;10.70;8.40;;;20.40;99.90;;;;;;5117729;28;20479;-79
2023/06/09 02:32:20;;;;;;;11.50;9.43;;;20.30;99.90;;;;;;5117663;28;20212;-78
2023/06/09 02:34:46;;;;;;;12.73;10.63;;;20.20;99.90;;;;;;5116294;28;20187;-79
2023/06/09 02:37:12;;;;;;;11.20;10.00;;;20.10;99.90;;;;;;5116174;28;20176;-79
2023/06/09 02:39:37;;;;;;;11.57;9.30;;;20.00;99.90;;;;;;5117691;28;20178;-77
2023/06/09 02:42:03;;;;;;;11.30;10.10;;;20.00;99.90;;;;;;5116053;28;20179;-77
2023/06/09 02:44:31;;;;;;;14.53;11.03;;;20.00;99.90;;;;;;5116051;28;20180;-77
2023/06/09 02:46:58;;;;;;;14.13;10.77;;;20.10;99.90;;;;;;5115849;28;20472;-77
2023/06/09 02:49:24;;;;;;;13.50;11.63;;;20.10;99.90;;;;;;5117506;28;20416;-79
2023/06/09 02:51:49;;;;;;;11.97;10.67;;;20.00;99.90;;;;;;5117075;28;20435;-77
2023/06/09 02:54:15;;;;;;;14.10;11.57;;;19.90;99.90;;;;;;5115998;28;20617;-77
2023/06/09 02:56:41;;;;;;;13.97;11.63;;;19.80;99.90;;;;;;5115763;28;20659;-77
2023/06/09 02:59:07;;;;;;;11.67;9.90;;;19.80;99.90;;;;;;5117154;28;20427;-79
2023/06/09 03:01:34;;;;;;;12.70;11.30;;;19.80;99.90;;;;;;5115675;28;20231;-79
2023/06/09 03:04:06;;;;;;;13.73;11.50;;;19.70;99.90;;;;;;5117062;28;20423;-79
2023/06/09 03:06:36;;;;;;;13.00;10.97;;;19.60;99.90;;;;;;5116841;28;20467;-77
2023/06/09 03:09:03;;;;;;;14.50;11.47;;;19.60;99.90;;;;;;5116921;28;20426;-77
2023/06/09 03:11:32;;;;;;;16.20;11.87;;;19.60;99.90;;;;;;5116798;28;20572;-79
2023/06/09 03:13:57;;;;;;;14.23;11.20;;;19.50;99.90;;;;;;5115476;28;20432;-77
2023/06/09 03:16:23;;;;;;;15.53;12.20;;;19.60;99.90;;;;;;5116601;28;20981;-79
2023/06/09 03:18:49;;;;;;;13.30;11.83;;;19.60;99.90;;;;;;5116648;28;20179;-78
2023/06/09 03:21:14;;;;;;;17.53;14.23;;;19.60;99.90;;;;;;5116563;28;20200;-77
2023/06/09 03:23:43;;;;;;;17.03;12.40;;;19.60;99.90;;;;;;5115233;28;20535;-79
2023/06/09 03:26:09;;;;;;;15.17;11.63;;;19.70;99.90;;;;;;5114903;28;20724;-79
2023/06/09 03:28:35;;;;;;;15.70;11.70;;;19.80;99.90;;;;;;5115117;28;20415;-77
2023/06/09 03:31:00;;;;;;;16.30;11.70;;;19.80;99.90;;;;;;5116330;28;20187;-78
2023/06/09 03:33:26;;;;;;;12.33;10.80;;;19.80;99.90;;;;;;5115000;28;20494;-79
2023/06/09 03:35:52;;;;;;;13.10;11.50;;;19.90;99.90;;;;;;5114519;28;20223;-77
2023/06/09 03:38:18;;;;;;;16.03;11.23;;;19.90;99.90;;;;;;5116219;28;20205;-79
2023/06/09 03:40:44;;;;;;;17.03;12.30;;;19.90;99.90;;;;;;5114951;28;20778;-77
2023/06/09 03:43:11;;;;;;;16.00;11.93;;;20.00;99.90;;;;;;5116150;28;20430;-78
2023/06/09 03:45:37;;;;;;;15.77;11.80;;;20.00;99.90;;;;;;5115042;28;20482;-79
2023/06/09 03:48:05;;;;;;;16.97;11.97;;;20.00;99.90;;;;;;5114776;28;20818;-79
2023/06/09 03:50:31;;;;;;;14.67;11.30;;;20.00;99.90;;;;;;5114680;28;20974;-77
2023/06/09 03:52:57;;;;;;;13.20;11.30;;;20.00;99.90;;;;;;5115921;28;20408;-77
2023/06/09 03:55:24;;;;;;;13.17;11.23;;;20.00;99.90;;;;;;5116344;28;20436;-77
2023/06/09 03:57:50;;;;;;;14.70;12.20;;;20.00;99.90;;;;;;5115913;28;20163;-79
2023/06/09 04:00:17;;;;;;;17.30;11.67;;;20.00;99.90;;;;;;5116174;28;20962;-79
2023/06/09 04:02:43;;;;;;;14.80;12.73;;;20.10;99.90;;;;;;5115849;28;20411;-79
2023/06/09 04:05:09;;;;;;;13.43;11.63;;;20.10;99.90;;;;;;5115933;28;20439;-77
2023/06/09 04:07:35;;;;;;;15.20;12.30;;;20.10;99.90;;;;;;5114440;28;20450;-77
2023/06/09 04:10:02;;;;;;;13.90;12.00;;;20.10;99.90;;;;;;5115953;28;20217;-77
2023/06/09 04:12:28;;;;;;;15.20;12.53;;;20.20;99.90;;;;;;5114342;28;20179;-80
2023/06/09 04:14:55;;;;;;;14.20;12.30;;;20.20;99.90;;;;;;5115854;28;20436;-77
2023/06/09 04:17:22;;;;;;;16.37;14.70;;;20.30;99.90;;;;;;5114234;28;20526;-77
2023/06/09 04:19:48;;;;;;;15.43;12.70;;;20.30;99.90;;;;;;5112937;28;20858;-77
2023/06/09 04:22:14;;;;;;;13.83;11.47;;;20.30;99.90;;;;;;5095849;28;20428;-80
2023/06/09 04:24:40;;;;;;;13.87;11.83;;;20.40;99.90;;;;;;5093983;28;20541;-77
2023/06/09 04:27:05;;;;;;;16.20;12.93;;;20.50;99.90;;;;;;5094880;28;20235;-80
2023/06/09 04:29:34;;;;;;;15.43;11.93;;;20.50;99.90;;;;;;5096194;28;20466;-80
2023/06/09 04:32:00;;;;;;;18.47;13.30;;;20.50;99.90;;;;;;5115098;28;20675;-79
2023/06/09 04:34:37;;;;;;;16.67;12.03;;;20.60;99.90;;;;;;5113991;28;20412;-77
2023/06/09 04:37:04;;;;;;;14.57;12.97;;;20.60;99.90;;;;;;5115202;28;20463;-79
2023/06/09 04:39:30;;;;;;;78.03;55.43;;;20.60;99.90;;;;;;5108408;28;20539;-78
2023/06/09 04:41:55;;;;;;;18.83;13.70;;;20.60;99.90;;;;;;5108030;28;20506;-77
2023/06/09 04:44:22;;;;;;;15.00;11.60;;;20.50;99.90;;;;;;5111112;28;20287;-79
2023/06/09 04:46:49;;;;;;;14.87;13.30;;;20.40;99.90;;;;;;5112505;28;20579;-79
2023/06/09 04:49:15;;;;;;;15.20;12.33;;;20.30;99.90;;;;;;5114450;28;20435;-79
2023/06/09 04:51:48;;;;;;;14.87;13.17;;;20.30;99.90;;;;;;5113280;28;20471;-77
2023/06/09 04:54:17;;;;;;;14.00;11.83;;;20.20;99.90;;;;;;5100180;28;20952;-78
2023/06/09 04:56:44;;;;;;;14.87;11.90;;;20.20;99.90;;;;;;5101689;28;20492;-77
2023/06/09 04:59:11;;;;;;;16.70;13.73;;;20.20;99.90;;;;;;5114743;28;20431;-76
2023/06/09 05:01:38;;;;;;;16.50;13.67;;;20.20;99.90;;;;;;5096208;28;20460;-77
2023/06/09 05:04:08;;;;;;;16.57;12.80;;;20.20;99.90;;;;;;5105527;28;20438;-77
2023/06/09 05:06:36;;;;;;;19.40;14.97;;;20.20;99.90;;;;;;5113340;28;20797;-77
2023/06/09 05:09:05;;;;;;;18.67;13.63;;;20.20;99.90;;;;;;5113177;28;20439;-79
2023/06/09 05:11:30;;;;;;;17.37;14.00;;;20.20;99.90;;;;;;5108778;28;20442;-77
2023/06/09 05:13:56;;;;;;;16.70;14.67;;;20.20;99.90;;;;;;5093760;28;20466;-80
2023/06/09 05:16:25;;;;;;;17.00;14.77;;;20.20;99.90;;;;;;5110441;28;20202;-77
2023/06/09 05:18:52;;;;;;;19.83;15.60;;;20.10;99.90;;;;;;5101958;28;20278;-80
2023/06/09 05:21:17;;;;;;;16.00;14.20;;;20.10;99.90;;;;;;5104639;28;20554;-80
2023/06/09 05:23:43;;;;;;;15.60;13.17;;;20.10;99.90;;;;;;5103551;28;20522;-77
2023/06/09 05:26:09;;;;;;;14.00;12.27;;;20.10;99.90;;;;;;5109577;28;20229;-80
2023/06/09 05:28:35;;;;;;;15.40;12.50;;;20.00;99.90;;;;;;5109117;28;20228;-80
2023/06/09 05:31:01;;;;;;;15.63;12.73;;;20.00;99.90;;;;;;5100364;28;20450;-76
2023/06/09 05:33:27;;;;;;;14.90;12.73;;;20.00;99.90;;;;;;5100205;28;20199;-79
2023/06/09 05:35:52;;;;;;;13.63;12.10;;;20.00;99.90;;;;;;5113464;28;20485;-79
2023/06/09 05:38:19;;;;;;;13.60;11.80;;;20.00;99.90;;;;;;5110939;28;20267;-78
2023/06/09 05:40:45;;;;;;;14.50;11.93;;;20.00;99.90;;;;;;5104611;28;20205;-77
2023/06/09 05:43:11;;;;;;;13.60;12.00;;;20.00;99.90;;;;;;5101252;28;20423;-77
2023/06/09 05:45:37;;;;;;;11.07;9.93;;;20.10;99.90;;;;;;5098067;28;20606;-79
2023/06/09 05:48:03;;;;;;;11.87;10.00;;;20.10;99.90;;;;;;5106108;28;20203;-76
2023/06/09 05:50:29;;;;;;;12.30;10.63;;;20.10;99.90;;;;;;5100158;28;20846;-77
2023/06/09 05:52:54;;;;;;;12.57;10.80;;;20.20;99.90;;;;;;5105284;28;20478;-77
2023/06/09 05:55:20;;;;;;;10.93;9.80;;;20.20;99.90;;;;;;5104278;28;20535;-79
2023/06/09 05:57:46;;;;;;;10.57;9.47;;;20.20;99.90;;;;;;5113567;28;20234;-77
2023/06/09 06:00:12;;;;;;;10.80;9.27;;;20.30;99.90;;;;;;5110067;28;20203;-77
2023/06/09 06:02:40;;;;;;;10.50;7.83;;;20.30;99.90;;;;;;5104741;28;20185;-76
2023/06/09 06:05:06;;;;;;;10.67;9.57;;;20.30;99.90;;;;;;5113807;28;20815;-76
2023/06/09 06:07:36;;;;;;;10.13;8.93;;;20.30;99.90;;;;;;5113492;28;20431;-77
2023/06/09 06:10:03;;;;;;;10.80;9.43;;;20.30;99.90;;;;;;5104632;28;20453;-78
2023/06/09 06:12:30;;;;;;;11.10;9.67;;;20.30;99.90;;;;;;5106503;28;20922;-77
2023/06/09 06:14:55;;;;;;;12.80;8.63;;;20.40;99.90;;;;;;5102454;28;20452;-81
2023/06/09 06:17:21;;;;;;;10.10;8.80;;;20.40;99.90;;;;;;5100302;28;20430;-78
2023/06/09 06:19:47;;;;;;;13.17;9.90;;;20.40;99.90;;;;;;5102418;28;20306;-80
2023/06/09 06:22:12;;;;;;;10.40;9.00;;;20.50;99.90;;;;;;5106609;28;20183;-78
2023/06/09 06:24:38;;;;;;;9.60;8.60;;;20.50;99.90;;;;;;5107103;28;20243;-77
2023/06/09 06:27:04;;;;;;;9.80;8.80;;;20.60;99.90;;;;;;5113106;28;20197;-81
2023/06/09 06:29:30;;;;;;;11.73;8.50;;;20.70;99.90;;;;;;5113917;28;20184;-81
2023/06/09 06:31:56;;;;;;;9.70;8.70;;;20.70;99.90;;;;;;5080029;28;20431;-86
2023/06/09 06:34:22;;;;;;;10.07;9.00;;;20.70;99.90;;;;;;5080824;28;21227;-77
2023/06/09 06:36:47;;;;;;;12.10;9.23;;;20.80;99.90;;;;;;5083571;28;20454;-80
2023/06/09 06:39:13;;;;;;;10.93;9.67;;;20.80;99.90;;;;;;5079329;28;20315;-81
2023/06/09 06:41:39;;;;;;;11.00;8.90;;;20.80;99.90;;;;;;5083166;28;20297;-87
2023/06/09 06:44:05;;;;;;;10.67;9.57;;;20.90;99.90;;;;;;5081601;28;20229;-86
2023/06/09 06:46:31;;;;;;;48.63;34.53;;;21.00;99.90;;;;;;5082213;28;20527;-87
2023/06/09 06:48:57;;;;;;;15.07;12.20;;;21.00;99.90;;;;;;5083315;28;20440;-82
2023/06/09 06:51:23;;;;;;;11.77;10.50;;;21.00;99.90;;;;;;5077379;28;20203;-87
2023/06/09 06:53:49;;;;;;;10.90;9.80;;;21.10;99.90;;;;;;5084062;28;20671;-83
2023/06/09 06:56:16;;;;;;;11.07;9.63;;;21.10;99.90;;;;;;5082603;28;20451;-81
2023/06/09 06:58:41;;;;;;;11.87;9.20;;;21.10;99.90;;;;;;5083010;28;20447;-81
2023/06/09 07:01:07;;;;;;;9.83;8.80;;;21.10;99.90;;;;;;5101039;28;20995;-85
2023/06/09 07:03:35;;;;;;;10.33;9.23;;;21.10;99.90;;;;;;5105081;28;20547;-81
2023/06/09 07:06:04;;;;;;;10.33;9.20;;;21.10;99.90;;;;;;5110222;28;20203;-82
2023/06/09 07:08:30;;;;;;;10.63;9.10;;;21.10;99.90;;;;;;5102210;28;20415;-82
2023/06/09 07:10:55;;;;;;;9.37;8.47;;;21.20;99.90;;;;;;5096291;28;20428;-81
2023/06/09 07:13:21;;;;;;;9.43;8.27;;;21.20;99.90;;;;;;5097597;28;20183;-87
2023/06/09 07:15:47;;;;;;;10.97;9.40;;;21.30;99.90;;;;;;5097033;28;20230;-83
2023/06/09 07:18:13;;;;;;;9.37;8.10;;;21.40;99.90;;;;;;5095425;28;20250;-82
2023/06/09 07:20:38;;;;;;;9.33;8.40;;;21.30;99.90;;;;;;5100603;28;20211;-88
2023/06/09 07:23:04;;;;;;;10.40;8.47;;;21.30;99.90;;;;;;5104797;28;20172;-87
2023/06/09 07:25:31;;;;;;;10.20;8.50;;;21.30;99.90;;;;;;5098386;28;20422;-87
2023/06/09 07:27:56;;;;;;;9.90;8.77;;;21.30;99.90;;;;;;5101202;28;20188;-88
2023/06/09 07:30:22;;;;;;;10.03;8.77;;;21.30;99.90;;;;;;5098220;28;21198;-84
2023/06/09 07:32:48;;;;;;;9.17;8.33;;;21.30;99.90;;;;;;5101724;28;20187;-86
2023/06/09 07:35:13;;;;;;;8.50;7.60;;;21.30;99.90;;;;;;5099721;28;20240;-81
2023/06/09 07:37:42;;;;;;;9.10;8.20;;;21.30;99.90;;;;;;5095697;28;20182;-86
2023/06/09 07:40:09;;;;;;;9.03;8.13;;;21.30;99.90;;;;;;5098198;28;20875;-82
2023/06/09 07:42:35;;;;;;;9.20;8.33;;;21.30;99.90;;;;;;5101785;28;20427;-87
2023/06/09 07:45:01;;;;;;;10.80;9.50;;;21.30;99.90;;;;;;5097731;28;20457;-87
2023/06/09 07:47:27;;;;;;;9.90;8.40;;;21.30;99.90;;;;;;5099549;28;20195;-81
2023/06/09 07:49:52;;;;;;;10.00;9.00;;;21.30;99.90;;;;;;5096340;28;20518;-88
2023/06/09 07:52:18;;;;;;;10.20;8.23;;;21.30;99.90;;;;;;5093992;27;20207;-81
2023/06/09 07:54:46;;;;;;;9.40;8.40;;;21.30;99.90;;;;;;5103002;28;20701;-81
2023/06/09 07:57:12;;;;;;;9.50;8.30;;;21.30;99.90;;;;;;5101037;28;20617;-88
2023/06/09 07:59:38;;;;;;;9.40;8.50;;;21.30;99.90;;;;;;5102391;28;20546;-87
2023/06/09 08:02:04;;;;;;;8.90;7.87;;;21.30;99.90;;;;;;5108399;28;20657;-82
2023/06/09 08:04:30;;;;;;;10.37;8.83;;;21.30;99.90;;;;;;5104464;28;20207;-82
2023/06/09 08:06:58;;;;;;;9.20;8.30;;;21.30;99.90;;;;;;5098638;28;20459;-86
2023/06/09 08:09:25;;;;;;;9.60;8.70;;;21.30;99.90;;;;;;5104834;28;20448;-86
2023/06/09 08:11:51;;;;;;;10.67;9.40;;;21.30;99.90;;;;;;5107752;28;20495;-87
2023/06/09 08:14:17;;;;;;;10.73;9.37;;;21.30;99.90;;;;;;5109202;28;20436;-87
2023/06/09 08:16:43;;;;;;;10.20;7.90;;;21.40;99.90;;;;;;5105267;28;20459;-86
2023/06/09 08:19:09;;;;;;;8.57;7.77;;;21.30;99.90;;;;;;5103937;28;20436;-81
2023/06/09 08:21:43;;;;;;;10.07;9.07;;;21.30;99.90;;;;;;5099543;28;20535;-88
2023/06/09 08:24:10;;;;;;;11.87;9.30;;;21.30;99.90;;;;;;5095984;28;20441;-86
2023/06/09 08:26:36;;;;;;;9.30;8.40;;;21.30;99.90;;;;;;5100328;28;20979;-86
2023/06/09 08:29:03;;;;;;;9.60;8.63;;;21.40;99.90;;;;;;5101284;28;20438;-87
2023/06/09 08:31:30;;;;;;;10.60;8.60;;;21.40;99.90;;;;;;5104799;28;20230;-82
2023/06/09 08:33:56;;;;;;;10.20;9.23;;;21.40;99.90;;;;;;5119164;27;20436;-88
2023/06/09 08:36:22;;;;;;;10.50;8.90;;;21.40;99.90;;;;;;5093946;28;20459;-86
2023/06/09 08:38:49;;;;;;;10.20;8.67;;;21.50;99.90;;;;;;5094969;28;20531;-87
2023/06/09 08:41:16;;;;;;;10.50;9.50;;;21.50;99.90;;;;;;5085931;28;20433;-82
2023/06/09 08:43:42;;;;;;;10.77;9.67;;;21.60;99.90;;;;;;5091226;28;20428;-82
2023/06/09 08:46:12;;;;;;;11.00;10.00;;;21.60;99.90;;;;;;5094116;28;20489;-81
2023/06/09 08:48:54;;;;;;;10.57;9.57;;;21.70;99.90;;;;;;5088786;28;20887;-82
2023/06/09 08:51:23;;;;;;;11.83;9.80;;;21.80;99.90;;;;;;5085148;28;20469;-82
2023/06/09 08:53:52;;;;;;;11.23;10.03;;;21.90;99.90;;;;;;5091870;28;21040;-82
2023/06/09 08:56:21;;;;;;;10.43;9.43;;;22.10;99.90;;;;;;5091223;28;20516;-88
2023/06/09 08:58:50;;;;;;;11.47;10.03;;;22.10;99.90;;;;;;5096385;28;20429;-86
2023/06/09 09:01:19;;;;;;;11.77;10.57;;;22.10;99.90;;;;;;5084208;28;20439;-87
2023/06/09 09:03:48;;;;;;;10.47;9.40;;;22.20;99.90;;;;;;5089975;28;20546;-83
2023/06/09 09:06:15;;;;;;;11.70;10.00;;;22.30;99.90;;;;;;5096431;28;21084;-87
2023/06/09 09:08:41;;;;;;;11.83;9.97;;;22.30;99.90;;;;;;5101805;28;20773;-82
2023/06/09 09:11:07;;;;;;;11.57;10.37;;;22.40;99.90;;;;;;5108947;28;21309;-88
2023/06/09 09:13:32;;;;;;;12.00;10.23;;;22.40;99.90;;;;;;5098416;28;20416;-82
2023/06/09 09:16:00;;;;;;;12.53;10.10;;;22.50;99.90;;;;;;5090267;28;20271;-82
2023/06/09 09:18:35;;;;;;;10.67;9.73;;;22.50;99.90;;;;;;5088408;28;20263;-82
2023/06/09 09:21:02;;;;;;;11.30;10.30;;;22.60;99.90;;;;;;5104654;28;20519;-82
2023/06/09 09:23:34;;;;;;;10.70;9.60;;;22.70;99.90;;;;;;5103559;28;20792;-82
2023/06/09 09:26:03;;;;;;;10.90;9.80;;;22.70;99.90;;;;;;5106063;28;20490;-91
2023/06/09 09:28:42;;;;;;;10.20;9.20;;;22.80;99.90;;;;;;5111684;28;20462;-91
2023/06/09 09:31:08;;;;;;;11.70;10.60;;;22.80;99.90;;;;;;5103344;28;20456;-89
2023/06/09 09:33:38;;;;;;;10.80;9.80;;;22.80;99.90;;;;;;5095165;28;20434;-90
2023/06/09 09:36:09;;;;;;;11.40;10.30;;;22.80;99.90;;;;;;5102150;28;20448;-89
2023/06/09 09:38:35;;;;;;;11.70;10.50;;;22.90;99.90;;;;;;5097534;28;20404;-81
2023/06/09 09:41:00;;;;;;;12.47;11.23;;;22.90;99.90;;;;;;5110612;28;20443;-89
2023/06/09 09:43:28;;;;;;;10.33;9.33;;;23.00;99.90;;;;;;5107772;28;20886;-80
2023/06/09 09:45:55;;;;;;;11.73;10.63;;;23.00;99.90;;;;;;5102901;28;20631;-80
2023/06/09 09:48:23;;;;;;;11.30;10.20;;;23.00;99.90;;;;;;5092329;28;20722;-81
2023/06/09 09:50:52;;;;;;;11.70;10.57;;;23.00;99.90;;;;;;5091972;28;20467;-90
2023/06/09 09:53:21;;;;;;;13.83;12.53;;;23.00;99.90;;;;;;5099433;28;20408;-89
2023/06/09 09:55:46;;;;;;;11.67;10.67;;;23.00;99.90;;;;;;5099459;28;20721;-80
2023/06/09 09:58:14;;;;;;;12.63;11.23;;;23.00;99.90;;;;;;5098315;28;20415;-89
2023/06/09 10:00:46;;;;;;;11.70;10.60;;;23.10;99.90;;;;;;5097199;28;20477;-80
2023/06/09 10:03:19;;;;;;;12.23;10.93;;;23.10;99.90;;;;;;5095476;28;20389;-88
2023/06/09 10:05:47;;;;;;;11.83;10.73;;;23.00;99.90;;;;;;5093666;28;20473;-80
2023/06/09 10:08:20;;;;;;;11.10;9.90;;;23.00;99.90;;;;;;5091473;28;20810;-80
2023/06/09 10:10:47;;;;;;;12.70;11.47;;;23.00;99.90;;;;;;5096282;28;21144;-90
2023/06/09 10:13:14;;;;;;;11.90;10.70;;;23.00;99.90;;;;;;5096005;28;20466;-88
2023/06/09 10:15:43;;;;;;;16.73;10.70;;;23.00;99.90;;;;;;5099043;28;21011;-80
2023/06/09 10:18:10;;;;;;;11.87;10.67;;;23.10;99.90;;;;;;5106917;28;20414;-91
2023/06/09 10:20:36;;;;;;;12.07;11.00;;;23.10;99.90;;;;;;5108521;28;20540;-83
2023/06/09 10:23:09;;;;;;;11.20;10.13;;;23.20;99.90;;;;;;5099475;28;20787;-86
2023/06/09 10:25:41;;;;;;;10.83;9.93;;;23.20;99.90;;;;;;5102720;28;20492;-81
2023/06/09 10:28:10;;;;;;;11.90;10.80;;;23.20;99.90;;;;;;5106496;28;20864;-85
2023/06/09 10:30:37;;;;;;;12.10;10.87;;;23.20;99.90;;;;;;5098961;28;20567;-81
2023/06/09 10:33:18;;;;;;;12.60;11.40;;;23.20;99.90;;;;;;5105054;28;20810;-86
2023/06/09 10:35:47;;;;;;;13.47;12.10;;;23.10;99.90;;;;;;5107429;28;20460;-82
2023/06/09 10:38:30;;;;;;;13.23;11.63;;;23.20;99.90;;;;;;5100823;28;20420;-82
2023/06/09 10:41:13;;;;;;;12.67;11.47;;;23.30;99.90;;;;;;5097178;28;20978;-82
2023/06/09 10:44:01;;;;;;;14.73;12.60;;;23.40;99.90;;;;;;5095220;28;20420;-81
2023/06/09 10:46:44;;;;;;;12.23;11.03;;;23.40;99.90;;;;;;5109492;28;20529;-82
2023/06/09 10:49:25;;;;;;;14.27;12.83;;;23.40;99.90;;;;;;5102441;28;20444;-86
2023/06/09 10:51:54;;;;;;;14.07;12.67;;;23.40;99.90;;;;;;5103945;28;20540;-86
2023/06/09 10:54:24;;;;;;;15.67;14.00;;;23.40;99.90;;;;;;5100725;28;20495;-82
2023/06/09 10:57:02;;;;;;;14.13;12.73;;;23.50;99.90;;;;;;5095684;28;20468;-88
2023/06/09 10:59:31;;;;;;;13.80;12.40;;;23.60;99.90;;;;;;5098813;28;20811;-79
2023/06/09 11:02:00;;;;;;;13.20;11.97;;;23.60;99.90;;;;;;5100800;28;20438;-79
2023/06/09 11:04:44;;;;;;;12.47;11.37;;;23.80;99.90;;;;;;5097586;28;20499;-82
2023/06/09 11:07:18;;;;;;;13.50;12.10;;;23.80;99.90;;;;;;5093505;28;21162;-82
2023/06/09 11:09:46;;;;;;;13.57;12.37;;;23.90;99.90;;;;;;5102655;28;20513;-78
2023/06/09 11:12:21;;;;;;;12.80;11.60;;;24.00;99.90;;;;;;5098397;28;20426;-85
2023/06/09 11:14:58;;;;;;;12.27;9.70;;;24.10;99.90;;;;;;5100049;28;20788;-79
2023/06/09 11:17:36;;;;;;;11.00;10.10;;;24.20;99.90;;;;;;5089911;28;20855;-88
2023/06/09 11:20:05;;;;;;;11.87;10.87;;;24.20;99.90;;;;;;5100633;28;20517;-81
2023/06/09 11:22:51;;;;;;;11.20;10.20;;;24.30;99.90;;;;;;5101973;28;20466;-82
2023/06/09 11:25:17;;;;;;;11.80;10.70;;;24.30;99.90;;;;;;5092227;28;20610;-90
2023/06/09 11:27:48;;;;;;;13.30;10.40;;;24.40;99.90;;;;;;5097888;28;20443;-81
2023/06/09 11:30:20;;;;;;;11.93;10.93;;;24.40;99.90;;;;;;5097898;28;20209;-86
2023/06/09 11:32:57;;;;;;;14.97;11.37;;;24.40;99.90;;;;;;5104488;28;20497;-87
2023/06/09 11:35:29;;;;;;;11.70;10.70;;;24.30;99.90;;;;;;5105242;28;20470;-86
2023/06/09 11:37:56;;;;;;;13.00;11.70;;;24.20;99.90;;;;;;5103431;28;20422;-77
2023/06/09 11:40:22;;;;;;;11.10;10.10;;;24.30;99.90;;;;;;5103089;28;20463;-85
2023/06/09 11:42:49;;;;;;;11.80;10.60;;;24.30;99.90;;;;;;5102717;28;20433;-90
2023/06/09 11:45:15;;;;;;;13.20;11.90;;;24.30;99.90;;;;;;5102285;28;20995;-86
2023/06/09 11:47:42;;;;;;;11.67;10.57;;;24.30;99.90;;;;;;5104400;28;20426;-77
2023/06/09 11:50:12;;;;;;;11.77;10.77;;;24.30;99.90;;;;;;5091655;28;21006;-79
2023/06/09 11:52:41;;;;;;;14.60;13.30;;;24.40;99.90;;;;;;5099431;28;20428;-79
2023/06/09 11:55:09;;;;;;;12.43;11.13;;;24.50;99.90;;;;;;5098082;28;20457;-91
2023/06/09 11:57:36;;;;;;;12.40;11.20;;;24.50;99.90;;;;;;5101173;28;20746;-83
2023/06/09 12:00:23;;;;;;;13.57;12.33;;;24.50;99.90;;;;;;5099699;28;20458;-83
2023/06/09 12:02:49;;;;;;;13.33;11.97;;;24.40;99.90;;;;;;5101894;28;20442;-80
2023/06/09 12:05:16;;;;;;;13.00;11.10;;;24.40;99.90;;;;;;5104760;28;20447;-81
2023/06/09 12:07:43;;;;;;;12.53;11.00;;;24.40;99.90;;;;;;5098737;28;20849;-86
2023/06/09 12:10:10;;;;;;;10.70;9.70;;;24.40;99.90;;;;;;5101185;28;20490;-87
2023/06/09 12:12:47;;;;;;;6.93;6.23;;;24.40;99.90;;;;;;5092158;28;21010;-78
2023/06/09 12:15:14;;;;;;;6.47;5.77;;;24.40;99.90;;;;;;5091674;28;20995;-91
2023/06/09 12:17:40;;;;;;;8.23;7.63;;;24.40;99.90;;;;;;5094752;28;20490;-80
2023/06/09 12:20:25;;;;;;;7.53;6.83;;;24.40;99.90;;;;;;5098922;28;20538;-82
2023/06/09 12:23:03;;;;;;;6.87;6.27;;;24.40;99.90;;;;;;5098082;28;20963;-82
2023/06/09 12:25:33;;;;;;;7.33;6.73;;;24.50;99.90;;;;;;5097786;28;21895;-85
2023/06/09 12:28:19;;;;;;;7.77;7.17;;;24.50;99.90;;;;;;5100370;28;20439;-89
2023/06/09 12:30:51;;;;;;;7.23;6.53;;;24.60;99.90;;;;;;5093396;28;20448;-81
2023/06/09 12:33:24;;;;;;;9.90;7.17;;;24.60;99.90;;;;;;5097517;28;20424;-82
2023/06/09 12:36:10;;;;;;;8.00;7.30;;;24.70;99.90;;;;;;5112642;27;21158;-89
2023/06/09 12:38:38;;;;;;;7.40;6.70;;;24.80;99.90;;;;;;5095875;28;20419;-84